createdAt,value
2022-09-28T00:01:28.156Z,9.57
2022-09-28T00:03:58.107Z,9.58
2022-09-28T00:06:26.366Z,9.59
2022-09-28T00:08:52.769Z,9.57
2022-09-28T00:11:21.415Z,9.57
2022-09-28T00:13:53.215Z,9.57
2022-09-28T00:16:25.300Z,9.57
2022-09-28T00:18:52.861Z,9.55
2022-09-28T00:21:24.661Z,9.54
2022-09-28T00:24:11.385Z,9.53
2022-09-28T00:26:40.987Z,9.50
2022-09-28T00:29:15.233Z,9.48
2022-09-28T00:31:42.417Z,9.46
2022-09-28T00:34:08.860Z,9.44
2022-09-28T00:36:35.618Z,9.44
2022-09-28T00:39:07.316Z,9.42
2022-09-28T00:41:35.470Z,9.42
2022-09-28T00:44:24.193Z,9.43
2022-09-28T00:46:54.863Z,9.42
2022-09-28T00:49:47.782Z,9.41
2022-09-28T00:52:21.865Z,9.40
2022-09-28T00:54:51.647Z,9.41
2022-09-28T00:57:19.014Z,9.41
2022-09-28T00:59:45.601Z,9.42
2022-09-28T01:02:12.104Z,9.43
2022-09-28T01:04:39.153Z,9.44
2022-09-28T01:07:08.772Z,9.46
2022-09-28T01:09:39.173Z,9.47
2022-09-28T01:12:05.921Z,9.49
2022-09-28T01:14:32.615Z,9.50
2022-09-28T01:17:15.357Z,9.52
2022-09-28T01:20:15.692Z,9.52
2022-09-28T01:23:12.943Z,9.46
2022-09-28T01:25:59.309Z,9.43
2022-09-28T01:28:28.760Z,9.40
2022-09-28T01:30:57.958Z,9.42
2022-09-28T01:33:28.776Z,9.42
2022-09-28T01:36:02.624Z,9.45
2022-09-28T01:38:33.973Z,9.43
2022-09-28T01:41:01.125Z,9.43
2022-09-28T01:43:29.873Z,9.40
2022-09-28T01:46:01.686Z,9.41
2022-09-28T01:48:37.186Z,9.41
2022-09-28T01:51:10.146Z,9.41
2022-09-28T01:53:44.681Z,9.38
2022-09-28T01:56:23.407Z,9.37
2022-09-28T01:58:57.845Z,9.37
2022-09-28T02:01:35.129Z,9.34
2022-09-28T02:04:08.627Z,9.32
2022-09-28T02:07:07.478Z,9.30
2022-09-28T02:09:44.471Z,9.30
2022-09-28T02:12:19.492Z,9.35
2022-09-28T02:14:49.715Z,9.36
2022-09-28T02:17:16.584Z,9.34
2022-09-28T02:19:47.190Z,9.33
2022-09-28T02:22:37.162Z,9.28
2022-09-28T02:25:36.072Z,9.27
2022-09-28T02:28:06.737Z,9.26
2022-09-28T02:30:36.855Z,9.24
2022-09-28T02:33:16.592Z,9.23
2022-09-28T02:35:43.437Z,9.20
2022-09-28T02:38:14.305Z,9.18
2022-09-28T02:40:57.581Z,9.19
2022-09-28T02:43:31.466Z,9.15
2022-09-28T02:46:16.727Z,9.16
2022-09-28T02:49:22.145Z,9.14
2022-09-28T02:52:03.614Z,9.14
2022-09-28T02:54:36.010Z,9.11
2022-09-28T02:57:33.887Z,9.12
2022-09-28T03:00:10.055Z,9.13
2022-09-28T03:02:55.296Z,9.15
2022-09-28T03:05:52.766Z,9.13
2022-09-28T03:08:33.220Z,9.13
2022-09-28T03:11:10.137Z,9.12
2022-09-28T03:13:37.044Z,9.11
2022-09-28T03:16:11.485Z,9.13
2022-09-28T03:18:38.838Z,9.13
2022-09-28T03:21:05.788Z,9.11
2022-09-28T03:23:32.525Z,9.15
2022-09-28T03:26:01.304Z,9.16
2022-09-28T03:28:28.086Z,9.16
2022-09-28T03:30:55.040Z,9.16
2022-09-28T03:33:21.898Z,9.17
2022-09-28T03:35:50.323Z,9.16
2022-09-28T03:38:18.682Z,9.16
2022-09-28T03:41:05.879Z,9.18
2022-09-28T03:43:35.321Z,9.18
2022-09-28T03:46:03.431Z,9.20
2022-09-28T03:48:35.568Z,9.18
2022-09-28T03:51:06.142Z,9.18
2022-09-28T03:53:33.592Z,9.16
2022-09-28T03:56:11.695Z,9.16
2022-09-28T03:58:39.052Z,9.13
2022-09-28T04:01:15.898Z,9.11
2022-09-28T04:03:45.945Z,9.08
2022-09-28T04:06:13.284Z,9.07
2022-09-28T04:08:40.041Z,9.03
2022-09-28T04:11:06.641Z,9.03
2022-09-28T04:13:33.640Z,9.00
2022-09-28T04:16:01.411Z,8.99
2022-09-28T04:18:32.668Z,8.96
2022-09-28T04:21:07.731Z,8.95
2022-09-28T04:23:40.256Z,8.95
2022-09-28T04:26:13.089Z,8.94
2022-09-28T04:29:01.578Z,8.95
2022-09-28T04:31:36.970Z,8.91
2022-09-28T04:34:04.444Z,8.89
2022-09-28T04:36:31.327Z,8.90
2022-09-28T04:38:57.734Z,8.90
2022-09-28T04:41:26.859Z,8.87
2022-09-28T04:43:53.338Z,8.88
2022-09-28T04:46:20.152Z,8.89
2022-09-28T04:49:01.157Z,8.91
2022-09-28T04:51:46.235Z,8.91
2022-09-28T04:54:12.691Z,8.93
2022-09-28T04:56:39.103Z,8.94
2022-09-28T04:59:05.776Z,8.91
2022-09-28T05:01:32.246Z,8.91
2022-09-28T05:03:58.685Z,8.88
2022-09-28T05:06:37.274Z,8.85
2022-09-28T05:09:06.265Z,8.82
2022-09-28T05:11:33.151Z,8.80
2022-09-28T05:13:59.867Z,8.78
2022-09-28T05:16:26.762Z,8.76
2022-09-28T05:19:12.465Z,8.98
2022-09-28T05:21:44.089Z,8.97
2022-09-28T05:24:11.982Z,8.94
2022-09-28T05:26:39.357Z,8.89
2022-09-28T05:29:07.490Z,8.86
2022-09-28T05:31:50.666Z,8.84
2022-09-28T05:34:32.350Z,8.86
2022-09-28T05:36:59.174Z,8.87
2022-09-28T05:39:25.669Z,8.88
2022-09-28T05:41:52.090Z,8.90
2022-09-28T05:44:18.601Z,8.94
2022-09-28T05:46:46.791Z,8.93
2022-09-28T05:49:13.642Z,8.90
2022-09-28T05:51:40.306Z,8.89
2022-09-28T05:54:06.734Z,8.89
2022-09-28T05:56:40.762Z,8.88
2022-09-28T05:59:07.900Z,8.90
2022-09-28T06:01:35.806Z,8.93
2022-09-28T06:04:03.538Z,8.95
2022-09-28T06:06:31.202Z,8.96
2022-09-28T06:08:57.572Z,8.99
2022-09-28T06:11:48.206Z,9.01
2022-09-28T06:14:29.911Z,9.04
2022-09-28T06:16:56.430Z,9.07
2022-09-28T06:19:22.821Z,9.09
2022-09-28T06:22:15.280Z,9.11
2022-09-28T06:24:47.703Z,9.14
2022-09-28T06:27:14.098Z,9.21
2022-09-28T06:29:40.530Z,9.26
2022-09-28T06:32:07.499Z,9.35
2022-09-28T06:34:35.506Z,9.41
2022-09-28T06:37:04.544Z,9.46
2022-09-28T06:39:31.547Z,9.50
2022-09-28T06:41:58.697Z,9.54
2022-09-28T06:44:37.953Z,9.58
2022-09-28T06:47:24.131Z,9.63
2022-09-28T06:50:03.792Z,9.65
2022-09-28T06:52:54.005Z,9.64
2022-09-28T06:55:41.090Z,9.64
2022-09-28T06:58:11.044Z,9.65
2022-09-28T07:00:39.105Z,9.69
2022-09-28T07:03:16.485Z,9.70
2022-09-28T07:06:00.704Z,9.69
2022-09-28T07:08:41.415Z,9.71
2022-09-28T07:11:26.906Z,9.74
2022-09-28T07:14:20.223Z,9.79
2022-09-28T07:17:11.535Z,9.82
2022-09-28T07:19:39.896Z,9.89
2022-09-28T07:22:06.309Z,9.94
2022-09-28T07:24:33.023Z,9.97
2022-09-28T07:27:37.000Z,9.97
2022-09-28T07:30:33.453Z,9.99
2022-09-28T07:33:08.687Z,10.03
2022-09-28T07:35:54.322Z,10.07
2022-09-28T07:38:23.283Z,10.12
2022-09-28T07:41:08.524Z,10.16
2022-09-28T07:43:35.982Z,10.21
2022-09-28T07:46:03.499Z,10.24
2022-09-28T07:48:37.879Z,10.27
2022-09-28T07:51:13.699Z,10.25
2022-09-28T07:53:56.225Z,10.26
2022-09-28T07:56:41.026Z,10.29
2022-09-28T07:59:18.915Z,10.33
2022-09-28T08:02:03.807Z,10.37
2022-09-28T08:04:30.390Z,10.42
2022-09-28T08:06:56.830Z,10.45
2022-09-28T08:09:23.260Z,10.47
2022-09-28T08:12:24.577Z,10.53
2022-09-28T08:15:12.001Z,10.58
2022-09-28T08:17:54.909Z,10.62
2022-09-28T08:20:51.850Z,10.66
2022-09-28T08:23:20.257Z,10.70
2022-09-28T08:25:53.898Z,10.73
2022-09-28T08:28:23.642Z,10.73
2022-09-28T08:30:54.049Z,10.73
2022-09-28T08:33:32.732Z,10.78
2022-09-28T08:36:17.847Z,10.85
2022-09-28T08:39:10.262Z,10.93
2022-09-28T08:42:11.022Z,11.01
2022-09-28T08:45:09.140Z,11.03
2022-09-28T08:48:31.846Z,11.05
2022-09-28T08:51:28.564Z,11.12
2022-09-28T08:54:11.887Z,11.16
2022-09-28T08:57:01.865Z,11.23
2022-09-28T08:59:53.406Z,11.27
2022-09-28T09:02:39.496Z,11.28
2022-09-28T09:05:27.213Z,11.29
2022-09-28T09:08:12.609Z,11.34
2022-09-28T09:10:45.843Z,11.34
2022-09-28T09:13:33.152Z,11.34
2022-09-28T09:16:22.426Z,11.41
2022-09-28T09:19:17.248Z,11.46
2022-09-28T09:22:09.939Z,11.46
2022-09-28T09:24:52.782Z,11.49
2022-09-28T09:27:42.462Z,11.49
2022-09-28T09:30:13.680Z,11.57
2022-09-28T09:32:43.698Z,11.60
2022-09-28T09:35:31.844Z,11.62
2022-09-28T09:38:31.945Z,11.48
2022-09-28T09:41:32.440Z,11.46
2022-09-28T09:44:38.655Z,11.50
2022-09-28T09:47:47.841Z,11.56
2022-09-28T09:50:39.849Z,11.60
2022-09-28T09:53:28.062Z,11.61
2022-09-28T09:56:01.588Z,11.67
2022-09-28T09:58:39.873Z,11.80
2022-09-28T10:01:35.600Z,11.95
2022-09-28T10:04:24.755Z,11.95
2022-09-28T10:06:58.684Z,12.03
2022-09-28T10:09:34.641Z,12.04
2022-09-28T10:12:23.108Z,12.04
2022-09-28T10:14:50.498Z,12.05
2022-09-28T10:17:19.649Z,12.02
2022-09-28T10:20:05.018Z,12.02
2022-09-28T10:22:56.978Z,12.02
2022-09-28T10:25:24.902Z,12.06
2022-09-28T10:27:52.439Z,12.19
2022-09-28T10:30:25.029Z,12.32
2022-09-28T10:32:58.843Z,12.42
2022-09-28T10:35:40.934Z,12.47
2022-09-28T10:38:18.502Z,12.52
2022-09-28T10:40:55.258Z,12.53
2022-09-28T10:43:38.305Z,12.51
2022-09-28T10:46:21.657Z,12.44
2022-09-28T10:49:00.999Z,12.40
2022-09-28T10:51:44.313Z,12.31
2022-09-28T10:54:18.973Z,12.25
2022-09-28T10:56:48.573Z,12.24
2022-09-28T10:59:29.252Z,12.21
2022-09-28T11:02:30.393Z,12.10
2022-09-28T11:05:06.889Z,12.01
2022-09-28T11:07:47.808Z,11.96
2022-09-28T11:10:26.240Z,11.91
2022-09-28T11:12:57.725Z,11.80
2022-09-28T11:15:29.849Z,11.79
2022-09-28T11:18:18.558Z,11.78
2022-09-28T11:20:45.616Z,11.79
2022-09-28T11:23:20.370Z,11.82
2022-09-28T11:25:58.378Z,11.86
2022-09-28T11:28:32.572Z,11.88
2022-09-28T11:31:02.374Z,11.86
2022-09-28T11:34:05.974Z,11.85
2022-09-28T11:37:01.761Z,11.85
2022-09-28T11:39:50.986Z,11.87
2022-09-28T11:42:33.870Z,11.88
2022-09-28T11:45:15.506Z,11.87
2022-09-28T11:47:47.500Z,11.86
2022-09-28T11:50:24.465Z,11.82
2022-09-28T11:53:09.710Z,11.80
2022-09-28T11:55:47.414Z,11.78
2022-09-28T11:58:27.232Z,11.77
2022-09-28T12:01:26.115Z,11.80
2022-09-28T12:04:17.022Z,11.89
2022-09-28T12:06:53.606Z,11.95
2022-09-28T12:09:36.377Z,12.00
2022-09-28T12:12:24.816Z,12.06
2022-09-28T12:14:59.576Z,12.12
2022-09-28T12:17:34.416Z,12.19
2022-09-28T12:20:12.221Z,12.24
2022-09-28T12:22:44.461Z,12.37
2022-09-28T12:25:17.210Z,12.70
2022-09-28T12:27:51.309Z,13.08
2022-09-28T12:30:26.536Z,13.14
2022-09-28T12:33:04.506Z,13.07
2022-09-28T12:35:52.807Z,12.99
2022-09-28T12:39:21.819Z,12.85
2022-09-28T12:42:08.272Z,12.81
2022-09-28T12:44:57.157Z,12.74
2022-09-28T12:47:45.790Z,12.62
2022-09-28T12:50:39.909Z,12.55
2022-09-28T12:53:32.132Z,12.44
2022-09-28T12:56:04.542Z,12.27
2022-09-28T12:59:06.834Z,12.21
2022-09-28T13:02:00.891Z,12.11
2022-09-28T13:05:00.444Z,12.08
2022-09-28T13:07:49.840Z,12.08
2022-09-28T13:10:32.497Z,12.09
2022-09-28T13:13:07.712Z,12.11
2022-09-28T13:15:52.953Z,12.14
2022-09-28T13:18:30.877Z,12.17
2022-09-28T13:21:29.758Z,12.19
2022-09-28T13:24:14.405Z,12.20
2022-09-28T13:26:47.822Z,12.21
2022-09-28T13:29:18.753Z,12.22
2022-09-28T13:31:58.126Z,12.21
2022-09-28T13:34:27.525Z,12.21
2022-09-28T13:37:21.584Z,12.21
2022-09-28T13:39:52.002Z,12.18
2022-09-28T13:42:46.137Z,12.16
2022-09-28T13:45:32.225Z,12.17
2022-09-28T13:48:15.982Z,12.15
2022-09-28T13:50:58.125Z,12.12
2022-09-28T13:53:40.790Z,12.11
2022-09-28T13:56:44.718Z,12.11
2022-09-28T13:59:28.652Z,12.08
2022-09-28T14:02:31.096Z,12.07
2022-09-28T14:05:04.354Z,12.03
2022-09-28T14:07:33.606Z,12.00
2022-09-28T14:10:24.480Z,11.88
2022-09-28T14:12:52.857Z,11.83
2022-09-28T14:15:39.428Z,11.81
2022-09-28T14:18:21.155Z,11.81
2022-09-28T14:20:54.580Z,11.76
2022-09-28T14:23:56.351Z,11.72
2022-09-28T14:26:59.982Z,11.68
2022-09-28T14:29:36.394Z,11.65
2022-09-28T14:32:21.059Z,11.61
2022-09-28T14:34:56.664Z,11.61
2022-09-28T14:37:58.077Z,11.66
2022-09-28T14:40:49.920Z,11.75
2022-09-28T14:43:34.904Z,11.80
2022-09-28T14:46:19.703Z,11.81
2022-09-28T14:49:05.711Z,11.83
2022-09-28T14:51:34.416Z,11.86
2022-09-28T14:54:05.050Z,11.93
2022-09-28T14:56:48.296Z,11.97
2022-09-28T14:59:25.175Z,11.95
2022-09-28T15:02:07.790Z,11.96
2022-09-28T15:04:39.979Z,11.98
2022-09-28T15:07:06.461Z,12.04
2022-09-28T15:09:35.257Z,12.04
2022-09-28T15:12:29.451Z,12.04
2022-09-28T15:15:05.483Z,11.95
2022-09-28T15:17:39.527Z,11.93
2022-09-28T15:20:17.050Z,11.93
2022-09-28T15:22:48.113Z,11.91
2022-09-28T15:25:19.931Z,11.92
2022-09-28T15:27:52.472Z,11.92
2022-09-28T15:30:31.707Z,11.95
2022-09-28T15:33:20.335Z,11.93
2022-09-28T15:36:02.372Z,11.92
2022-09-28T15:38:30.996Z,11.88
2022-09-28T15:40:57.788Z,11.85
2022-09-28T15:43:32.844Z,11.85
2022-09-28T15:46:13.494Z,11.86
2022-09-28T15:48:55.868Z,11.88
2022-09-28T15:51:24.459Z,11.90
2022-09-28T15:54:19.334Z,11.95
2022-09-28T15:57:01.871Z,12.00
2022-09-28T15:59:39.742Z,12.04
2022-09-28T16:02:17.248Z,12.07
2022-09-28T16:05:00.448Z,12.08
2022-09-28T16:07:27.447Z,12.07
2022-09-28T16:10:00.194Z,12.05
2022-09-28T16:12:40.587Z,12.05
2022-09-28T16:15:28.709Z,12.06
2022-09-28T16:18:00.550Z,11.99
2022-09-28T16:20:37.354Z,11.98
2022-09-28T16:23:15.730Z,11.99
2022-09-28T16:25:53.386Z,12.00
2022-09-28T16:28:37.822Z,12.01
2022-09-28T16:31:27.080Z,12.02
2022-09-28T16:34:16.921Z,12.01
2022-09-28T16:36:45.826Z,12.02
2022-09-28T16:39:14.135Z,12.04
2022-09-28T16:41:44.051Z,12.04
2022-09-28T16:44:23.367Z,12.03
2022-09-28T16:46:52.109Z,11.98
2022-09-28T16:49:18.938Z,11.85
2022-09-28T16:51:47.338Z,11.72
2022-09-28T16:54:36.735Z,11.68
2022-09-28T16:57:05.284Z,11.70
2022-09-28T16:59:32.310Z,11.70
2022-09-28T17:01:58.843Z,11.64
2022-09-28T17:04:26.179Z,11.62
2022-09-28T17:06:54.643Z,11.63
2022-09-28T17:09:22.682Z,11.63
2022-09-28T17:11:56.558Z,11.63
2022-09-28T17:14:23.764Z,11.56
2022-09-28T17:17:12.535Z,11.53
2022-09-28T17:19:39.913Z,11.50
2022-09-28T17:22:07.853Z,11.46
2022-09-28T17:24:34.251Z,11.45
2022-09-28T17:27:00.997Z,11.43
2022-09-28T17:29:27.835Z,11.43
2022-09-28T17:31:54.981Z,11.42
2022-09-28T17:34:21.786Z,11.41
2022-09-28T17:36:48.318Z,11.40
2022-09-28T17:39:17.407Z,11.39
2022-09-28T17:41:44.170Z,11.38
2022-09-28T17:44:12.143Z,11.38
2022-09-28T17:46:45.631Z,11.41
2022-09-28T17:49:12.374Z,11.39
2022-09-28T17:51:38.814Z,11.37
2022-09-28T17:54:06.757Z,11.37
2022-09-28T17:56:33.683Z,11.36
2022-09-28T17:59:05.427Z,11.37
2022-09-28T18:01:35.457Z,11.37
2022-09-28T18:04:03.870Z,11.39
2022-09-28T18:06:33.337Z,11.37
2022-09-28T18:09:00.006Z,11.36
2022-09-28T18:11:26.526Z,11.38
2022-09-28T18:13:52.878Z,11.42
2022-09-28T18:16:19.521Z,11.43
2022-09-28T18:18:47.296Z,11.39
2022-09-28T18:21:14.013Z,11.38
2022-09-28T18:23:40.396Z,11.35
2022-09-28T18:26:14.025Z,11.30
2022-09-28T18:28:40.731Z,11.25
2022-09-28T18:31:09.373Z,11.23
2022-09-28T18:33:36.567Z,11.25
2022-09-28T18:36:04.505Z,11.25
2022-09-28T18:38:31.070Z,11.26
2022-09-28T18:40:57.728Z,11.25
2022-09-28T18:43:24.126Z,11.21
2022-09-28T18:45:50.472Z,11.20
2022-09-28T18:48:16.890Z,11.20
2022-09-28T18:50:43.570Z,11.17
2022-09-28T18:53:12.510Z,11.13
2022-09-28T18:55:43.043Z,11.11
2022-09-28T18:58:10.535Z,11.07
2022-09-28T19:00:39.337Z,11.04
2022-09-28T19:03:06.844Z,11.00
2022-09-28T19:05:34.949Z,10.99
2022-09-28T19:08:01.625Z,10.97
2022-09-28T19:10:28.077Z,10.96
2022-09-28T19:12:54.445Z,10.96
2022-09-28T19:15:22.454Z,10.95
2022-09-28T19:17:49.779Z,10.94
2022-09-28T19:20:16.389Z,10.93
2022-09-28T19:22:44.103Z,10.91
2022-09-28T19:25:10.951Z,10.90
2022-09-28T19:27:37.386Z,10.93
2022-09-28T19:30:04.012Z,10.94
2022-09-28T19:32:30.350Z,10.94
2022-09-28T19:34:56.699Z,10.92
2022-09-28T19:37:23.073Z,10.89
2022-09-28T19:39:49.434Z,10.89
2022-09-28T19:42:15.771Z,10.89
2022-09-28T19:44:42.307Z,10.89
2022-09-28T19:47:09.882Z,10.87
2022-09-28T19:49:38.555Z,10.87
2022-09-28T19:52:13.323Z,10.86
2022-09-28T19:54:43.720Z,10.86
2022-09-28T19:57:11.525Z,10.84
2022-09-28T19:59:38.341Z,10.82
2022-09-28T20:02:10.151Z,10.83
2022-09-28T20:04:36.697Z,10.82
2022-09-28T20:07:04.219Z,10.83
2022-09-28T20:09:32.145Z,10.81
2022-09-28T20:11:58.490Z,10.78
2022-09-28T20:14:27.912Z,10.77
2022-09-28T20:16:57.100Z,10.76
2022-09-28T20:19:23.518Z,10.75
2022-09-28T20:21:50.762Z,10.74
2022-09-28T20:24:17.510Z,10.71
2022-09-28T20:26:45.571Z,10.66
2022-09-28T20:29:12.294Z,10.61
2022-09-28T20:31:38.753Z,10.56
2022-09-28T20:34:06.133Z,10.51
2022-09-28T20:36:33.272Z,10.51
2022-09-28T20:39:03.612Z,10.48
2022-09-28T20:41:35.476Z,10.46
2022-09-28T20:44:05.738Z,10.42
2022-09-28T20:46:36.342Z,10.40
2022-09-28T20:49:04.373Z,10.37
2022-09-28T20:51:31.406Z,10.34
2022-09-28T20:53:59.114Z,10.32
2022-09-28T20:56:30.970Z,10.28
2022-09-28T20:58:57.520Z,10.26
2022-09-28T21:01:26.753Z,10.26
2022-09-28T21:03:58.170Z,10.24
2022-09-28T21:06:27.059Z,10.23
2022-09-28T21:08:54.217Z,10.21
2022-09-28T21:11:22.760Z,10.20
2022-09-28T21:13:52.833Z,10.15
2022-09-28T21:16:19.509Z,10.12
2022-09-28T21:18:45.969Z,10.10
2022-09-28T21:21:18.221Z,10.06
2022-09-28T21:23:45.037Z,10.05
2022-09-28T21:26:15.631Z,10.07
2022-09-28T21:28:44.521Z,10.07
2022-09-28T21:31:11.932Z,10.07
2022-09-28T21:33:38.392Z,10.07
2022-09-28T21:36:07.091Z,10.07
2022-09-28T21:38:34.226Z,10.06
2022-09-28T21:41:00.637Z,10.03
2022-09-28T21:43:29.983Z,10.04
2022-09-28T21:45:57.982Z,10.00
2022-09-28T21:48:26.586Z,9.96
2022-09-28T21:51:03.083Z,9.91
2022-09-28T21:53:32.191Z,9.90
2022-09-28T21:56:00.075Z,9.89
2022-09-28T21:58:29.462Z,9.87
2022-09-28T22:01:14.675Z,9.87
2022-09-28T22:03:43.854Z,9.87
2022-09-28T22:06:11.241Z,9.85
2022-09-28T22:08:38.318Z,9.83
2022-09-28T22:11:06.429Z,9.80
2022-09-28T22:13:35.554Z,9.77
2022-09-28T22:16:02.539Z,9.75
2022-09-28T22:18:30.988Z,9.75
2022-09-28T22:20:59.246Z,9.71
2022-09-28T22:23:25.864Z,9.72
2022-09-28T22:25:58.265Z,9.72
2022-09-28T22:28:24.726Z,9.70
2022-09-28T22:30:51.115Z,9.70
2022-09-28T22:33:17.517Z,9.66
2022-09-28T22:35:43.873Z,9.62
2022-09-28T22:38:10.238Z,9.61
2022-09-28T22:40:36.799Z,9.61
2022-09-28T22:43:03.182Z,9.56
2022-09-28T22:45:30.048Z,9.55
2022-09-28T22:47:56.443Z,9.54
2022-09-28T22:50:22.794Z,9.51
2022-09-28T22:52:49.161Z,9.50
2022-09-28T22:55:15.585Z,9.48
2022-09-28T22:57:41.925Z,9.47
2022-09-28T23:00:08.613Z,9.48
2022-09-28T23:02:35.015Z,9.47
2022-09-28T23:05:01.497Z,9.44
2022-09-28T23:07:27.855Z,9.41
2022-09-28T23:09:54.233Z,9.40
2022-09-28T23:12:20.621Z,9.41
2022-09-28T23:14:46.986Z,9.39
2022-09-28T23:17:13.323Z,9.38
2022-09-28T23:19:39.801Z,9.36
2022-09-28T23:22:06.145Z,9.33
2022-09-28T23:24:32.481Z,9.30
2022-09-28T23:26:58.825Z,9.28
2022-09-28T23:29:25.205Z,9.26
2022-09-28T23:31:51.568Z,9.25
2022-09-28T23:34:17.980Z,9.24
2022-09-28T23:36:44.462Z,9.22
2022-09-28T23:39:11.617Z,9.22
2022-09-28T23:41:38.008Z,9.20
2022-09-28T23:44:04.517Z,9.19
2022-09-28T23:46:30.903Z,9.16
2022-09-28T23:48:57.360Z,9.15
2022-09-28T23:51:23.732Z,9.15
2022-09-28T23:53:50.223Z,9.15
2022-09-28T23:56:16.550Z,9.16
2022-09-28T23:58:42.973Z,9.15
